Flight Track Log - Related Links

Times and Time Zones

All times are in EDT time to prevent confusion due to time zone crossing. See the FLG3735 flight status page for this flight to view local times or setup timezone preferences in your user account.

Time Position Orientation Groundspeed Altitude Reporting Facility
EDT Latitude Longitude Course Direction KTS MPH feet Rate Location/Type
Sun 10:26:35 PM 42.2017 -83.3583 82° East 166 191 1,100  Level Cleveland Center
Sun 10:28:00 PM 42.1244 -83.3547 178° South 223 257 3,800 1,932 Climbing Cleveland Center
Sun 10:29:01 PM 42.0867 -83.2833 125° Southeast 274 315 5,800 2,121 Climbing Cleveland Center
Sun 10:29:56 PM 42.1094 -83.1919 71° East 285 328 7,900 2,143 Climbing Cleveland Center
Sun 10:30:00 PM 42.3167 -82.7493 82° East  Level FlightAware Approximate
Sun 10:30:53 PM 42.1364 -83.1089 66° East 293 337 9,800  Level Cleveland Center
Sun 10:31:00 PM 42.3321 -82.5952 82° East  Level FlightAware Approximate
Sun 10:31:53 PM 42.1742 -83.0011 65° Northeast 298 343 11,000  Level Cleveland Center
Sun 10:32:53 PM 42.2142 -82.8850 65° Northeast 312 359 12,900 1,800 Climbing Cleveland Center
Sun 10:33:53 PM 42.2558 -82.7742 63° Northeast 324 373 14,600 1,550 Climbing Cleveland Center
Sun 10:34:53 PM 42.2978 -82.6519 65° Northeast 337 388 16,000 1,400 Climbing Cleveland Center
Sun 10:35:53 PM 42.3417 -82.5272 65° Northeast 352 405 17,400 1,000 Climbing Cleveland Center
Sun 10:36:53 PM 42.3647 -82.3928 77° East 357 411 18,000 300 Climbing Cleveland Center
Sun 10:37:53 PM 42.3583 -82.2578 94° East 357 411 18,000 300 Level Cleveland Center
Sun 10:38:53 PM 42.3542 -82.1031 92° East 363 418 18,600 550 Climbing Cleveland Center
Sun 10:39:53 PM 42.3478 -81.9597 93° East 369 425 19,100 500 Climbing Cleveland Center
Sun 10:40:53 PM 42.3411 -81.8050 93° East 387 445 19,600 500 Climbing Cleveland Center
Sun 10:42:53 PM 42.3250 -81.5128 94° East 419 482 20,600 500 Climbing Cleveland Center
Sun 10:43:53 PM 42.3181 -81.3525 93° East 424 488 21,100 550 Climbing Cleveland Center
Sun 10:44:53 PM 42.3106 -81.1925 94° East 424 488 21,700 650 Climbing Cleveland Center
Sun 10:45:53 PM 42.3072 -81.0294 92° East 424 488 22,400 700 Climbing Cleveland Center
Sun 10:46:53 PM 42.3203 -80.8528 84° East 424 488 23,100 750 Climbing Cleveland Center
Sun 10:47:53 PM 42.3392 -80.6900 81° East 431 496 23,900 750 Climbing Cleveland Center
Sun 10:48:53 PM 42.3519 -80.5269 84° East 431 496 24,600 650 Climbing Cleveland Center
Sun 10:49:53 PM 42.3661 -80.3639 83° East 439 505 25,200 550 Climbing Cleveland Center
Sun 10:50:53 PM 42.3803 -80.1953 83° East 445 512 25,700 500 Climbing Cleveland Center
Sun 10:51:53 PM 42.3964 -80.0322 82° East 438 504 26,200 500 Climbing Cleveland Center
Sun 10:52:53 PM 42.4100 -79.8633 84° East 443 510 26,700 500 Climbing Cleveland Center
Sun 10:53:53 PM 42.4236 -79.6972 84° East 443 510 27,200 500 Climbing Cleveland Center
Sun 10:54:53 PM 42.4367 -79.5311 84° East 443 510 27,700 500 Climbing Cleveland Center
Sun 10:55:53 PM 42.4497 -79.3619 84° East 443 510 28,200 500 Climbing Cleveland Center
Sun 10:56:53 PM 42.4644 -79.1900 83° East 449 517 28,700 400 Climbing Cleveland Center
Sun 10:57:53 PM 42.4789 -79.0208 83° East 449 517 29,000 150 Climbing Cleveland Center
Sun 10:58:53 PM 42.4908 -78.8458 85° East 449 517 29,000  Level Cleveland Center
Sun 10:59:53 PM 42.5047 -78.6708 84° East 454 522 29,000  Level Cleveland Center
Sun 11:00:53 PM 42.5164 -78.4958 85° East 464 534 29,000  Level Cleveland Center
Sun 11:01:53 PM 42.5275 -78.3181 85° East 469 540 29,000  Level Cleveland Center
Sun 11:02:53 PM 42.5406 -78.1372 84° East 469 540 29,000  Level Cleveland Center
Sun 11:03:53 PM 42.5514 -77.9619 85° East 469 540 29,000  Level Cleveland Center
Sun 11:04:53 PM 42.5622 -77.8036 85° East 469 540 29,000  Level Cleveland Center
Sun 11:05:53 PM 42.5725 -77.6256 85° East 469 540 29,000  Level Cleveland Center
Sun 11:07:40 PM 42.5925 -77.2947 85° East 495 570 29,000  Level Boston Center
Sun 11:08:39 PM 42.6042 -77.1206 85° East 480 552 29,000 -400 Level Boston Center
Sun 11:09:40 PM 42.6133 -76.9464 86° East 472 543 28,200 -1,082 Descending Boston Center
Sun 11:10:41 PM 42.6242 -76.7750 85° East 462 532 26,800 -1,400 Descending Boston Center
Sun 11:11:40 PM 42.6325 -76.6033 86° East 457 526 25,400 -908 Descending Boston Center
Sun 11:12:40 PM 42.6406 -76.4372 86° East 452 520 25,000 -200 Descending Boston Center
Sun 11:13:40 PM 42.6508 -76.2656 85° East 452 520 25,000  Level Boston Center
Sun 11:14:41 PM 42.6603 -76.1022 85° East 446 513 25,000 -541 Level Boston Center
Sun 11:15:42 PM 42.6678 -75.9333 86° East 441 507 23,900 -1,388 Descending Boston Center
Sun 11:16:42 PM 42.6722 -75.7811 88° East 441 507 22,200 -1,700 Descending Boston Center
Sun 11:17:42 PM 42.6789 -75.6233 87° East 434 499 20,500 -1,664 Descending Boston Center
Sun 11:18:41 PM 42.6872 -75.4711 86° East 420 483 18,900 -1,487 Descending Boston Center
Sun 11:19:39 PM 42.6953 -75.3217 86° East 401 461 17,600 -1,400 Descending Boston Center
Sun 11:20:41 PM 42.7011 -75.1722 87° East 396 456 16,100 -1,475 Descending Boston Center
Sun 11:21:41 PM 42.7064 -75.0311 87° East 390 449 14,600 -1,350 Descending Boston Center
Sun 11:22:41 PM 42.7117 -74.8928 87° East 374 430 13,400 -1,169 Descending Boston Center
Sun 11:23:39 PM 42.7169 -74.7347 87° East 369 425 12,300 -1,068 Descending Boston Center
Sun 11:24:39 PM 42.7217 -74.5964 87° East 363 418 11,300 -645 Descending Boston Center
Sun 11:25:40 PM 42.7267 -74.4497 87° East 370 426 11,000 -496 Descending Boston Center
Sun 11:26:40 PM 42.7056 -74.3331 104° East 331 381 10,300 -1,041 Descending Boston Center
Sun 11:27:41 PM 42.6675 -74.2331 117° Southeast 304 350 8,900 -1,488 Descending Boston Center
Sun 11:28:41 PM 42.6317 -74.1333 116° Southeast 297 342 7,300 -1,667 Descending Boston Center
Sun 11:29:11 PM 42.6156 -74.0906 117° Southeast 287 330 6,400 -1,648 Descending Boston Center
Sun 11:30:12 PM 42.5836 -73.9967 115° Southeast 267 307 4,800 -1,574 Descending Boston Center
Sun 11:31:13 PM 42.5703 -73.9033 101° East 253 291 3,200 -1,289 Descending Boston Center
Sun 11:32:13 PM 42.6064 -73.8419 51° Northeast 209 241 2,200 -645 Descending Boston Center
Sun 11:33:14 PM 42.6528 -73.8036 31° Northeast 169 194 1,900 -496 Descending Boston Center
Sun 11:34:14 PM 42.6922 -73.8072 356° North 136 157 1,200 -700 Descending Boston Center

Login

Don't have an account? Register now (free) for customized features, flight alerts, and more!